Melcher Dallas, Iowa
Current Conditions -  °F | °C
As of 10:35 AM on Saturday 25 Oct 2014 (Local Time) from KOXV Reporting Station
Clear Clear  
Wind Chill: 61°   Ceiling: Unl
Heat Index: 61°   Visibility: 10mi
Dew Point: 46°   Wind: 6mph
Humidity: 59%   Direction: 340°NNW
Pressure: 30.09"   Gusts: NA
Location:  41.2269°N, 93.1611°W
Report Text: KOXV 251535Z AUTO 34005KT 10SM CLR 16/08 A3009 RMK AO2
Loading
Personal Weather Stations






























Interactive Weather Map
Tropical Storm Tracking
New forecast layout! Learn more

10-Day Weather Forecast

Advertisements
Track Severe Weather on mobile